Arney, Indiana
Current Conditions -  °F | °C
As of 9:53 PM on Saturday 25 Oct 2014 (Local Time) from KBMG Reporting Station
Clear Clear  
Wind Chill: 65°   Ceiling: Unl
Heat Index: 65°   Visibility: 9mi
Dew Point: 48°   Wind: 7mph
Humidity: 54%   Direction: 260°W
Pressure: 29.96"   Gusts: NA
Location:  39.2107°N, 86.8508°W
Report Text: KBMG 260153Z 26006KT 9SM CLR 18/09 A2996 RMK AO2 SLP143 T01830089
Loading
Personal Weather Stations






























Interactive Weather Map
Tropical Storm Tracking
New forecast layout! Learn more

10-Day Weather Forecast

Advertisements
Track Severe Weather on mobile